Time;durP1;ratioP1;P1;durP2;ratioP2;P2;SDS_P1;SDS_P2;PMS_P1;PMS_P2;Temp;Humidity;BMP_temperature;BMP_pressure;BME280_temperature;BME280_humidity;BME280_pressure;Samples;Min_cycle;Max_cycle;Signal;HPM_P1;HPM_P2
2022/02/10 00:08:33;;;;;;;153.00;93.97;;;;;;;-2.54;100.00;102354.06;5070412;28;19931;-78
2022/02/10 00:14:08;;;;;;;127.63;83.78;;;;;;;-2.62;100.00;102351.03;5087283;28;20516;-80
2022/02/10 00:22:02;;;;;;;129.48;89.28;;;;;;;-2.82;100.00;102350.28;5072520;28;20049;-79
2022/02/10 00:25:03;;;;;;;;;;;;;;;-2.77;100.00;102355.25;5082863;28;20043;-79
2022/02/10 00:35:49;;;;;;;86.10;73.60;;;;;;;-2.44;100.00;102350.03;5082410;28;20527;-81
2022/02/10 00:38:18;;;;;;;86.28;74.97;;;;;;;-2.59;100.00;102354.28;5082808;28;20049;-82
2022/02/10 00:40:45;;;;;;;78.75;66.13;;;;;;;-2.83;100.00;102350.38;5083207;28;20169;-83
2022/02/10 00:43:13;;;;;;;69.38;61.85;;;;;;;-2.90;100.00;102351.63;5084680;28;20118;-80
2022/02/10 00:45:40;;;;;;;89.88;80.18;;;;;;;-2.90;100.00;102344.66;5085723;28;20064;-80
2022/02/10 00:48:11;;;;;;;88.95;80.05;;;;;;;-2.89;100.00;102338.53;5087186;28;20461;-80
2022/02/10 00:50:40;;;;;;;87.85;78.55;;;;;;;-2.72;100.00;102332.47;5078270;28;20052;-82
2022/02/10 00:53:12;;;;;;;88.45;79.15;;;;;;;-2.56;100.00;102338.53;5080927;28;20052;-82
2022/02/10 00:55:43;;;;;;;101.35;91.20;;;;;;;-2.57;100.00;102343.81;5088605;28;20052;-80
2022/02/10 00:58:13;;;;;;;100.45;90.78;;;;;;;-2.76;100.00;102346.53;5079702;28;20132;-79
2022/02/10 01:31:14;;;;;;;78.65;71.22;;;;;;;-3.14;100.00;102344.13;5087573;28;20083;-80
2022/02/10 01:33:43;;;;;;;73.70;66.93;;;;;;;-3.14;100.00;102348.50;5087701;28;20040;-79
2022/02/10 01:36:11;;;;;;;77.43;70.32;;;;;;;-3.11;100.00;102330.97;5078642;28;20052;-80
2022/02/10 01:38:38;;;;;;;84.68;76.57;;;;;;;-3.15;100.00;102341.59;5084881;28;20117;-79
2022/02/10 01:41:43;;;;;;;79.15;71.32;;;;;;;-3.28;100.00;102337.00;5084271;28;20040;-80
2022/02/10 01:58:08;;;;;;;61.75;55.88;;;;;;;-3.21;100.00;102337.53;5053140;28;20051;-81
2022/02/10 02:03:24;;;;;;;58.95;53.20;;;;;;;-3.18;100.00;102340.00;5085706;28;20056;-82
2022/02/10 02:05:58;;;;;;;59.63;53.35;;;;;;;-3.41;100.00;102335.97;5079383;28;20066;-79
2022/02/10 02:08:29;;;;;;;62.08;56.05;;;;;;;-3.63;100.00;102346.56;5085598;28;20060;-79
2022/02/10 02:10:56;;;;;;;58.60;52.72;;;;;;;-3.65;100.00;102347.53;5086512;28;20052;-79
2022/02/10 02:13:23;;;;;;;58.55;52.67;;;;;;;-3.51;100.00;102343.38;5090358;28;20044;-82
2022/02/10 02:15:51;;;;;;;58.10;52.60;;;;;;;-3.44;100.00;102343.91;5086409;28;20480;-83
2022/02/10 02:18:18;;;;;;;75.65;67.78;;;;;;;-3.61;100.00;102346.47;5082699;28;20048;-79
2022/02/10 02:20:47;;;;;;;100.78;79.72;;;;;;;-3.50;100.00;102352.84;5075684;28;20060;-79
2022/02/10 02:23:17;;;;;;;111.85;84.03;;;;;;;-3.48;100.00;102345.81;5084054;28;20121;-79
2022/02/10 02:25:46;;;;;;;98.18;78.25;;;;;;;-3.41;100.00;102348.94;5084968;28;20374;-79
2022/02/10 02:28:14;;;;;;;63.78;57.28;;;;;;;-3.73;100.00;102360.88;5079174;28;20135;-78
2022/02/10 02:30:45;;;;;;;66.18;58.78;;;;;;;-3.65;100.00;102355.34;5080727;28;20102;-80
2022/02/10 02:33:51;;;;;;;77.40;65.05;;;;;;;-3.69;100.00;102352.06;5089280;28;20091;-81
2022/02/10 02:39:23;;;;;;;70.93;63.63;;;;;;;-3.67;100.00;102351.97;5080505;28;20037;-80
2022/02/10 03:04:37;;;;;;;69.60;62.80;;;;;;;-3.67;100.00;102360.59;5044381;28;20052;-80
2022/02/10 03:07:06;;;;;;;;;;;;;;;-3.75;100.00;102354.91;5042336;28;20049;-81
2022/02/10 03:09:39;;;;;;;63.25;56.67;;;;;;;-3.87;100.00;102355.50;5041439;28;19932;-80
2022/02/10 03:12:09;;;;;;;66.63;59.35;;;;;;;-3.59;100.00;102357.63;5043719;28;20061;-78
2022/02/10 03:14:44;;;;;;;73.45;63.10;;;;;;;-3.84;100.00;102350.16;5040582;28;20049;-80
2022/02/10 03:20:22;;;;;;;66.35;58.08;;;;;;;-4.04;100.00;102351.09;4973460;28;20452;-79
2022/02/10 04:07:36;;;;;;;212.27;115.93;;;;;;;-4.04;100.00;102343.31;5043588;28;20114;-80
2022/02/10 04:15:35;;;;;;;125.15;83.25;;;;;;;-3.98;100.00;102340.44;5047844;28;20041;-80
2022/02/10 04:18:41;;;;;;;113.03;79.30;;;;;;;-3.87;100.00;102343.38;5043122;28;20068;-80
2022/02/10 04:21:19;;;;;;;139.50;88.95;;;;;;;-3.64;100.00;102342.25;5052113;28;20063;-80
2022/02/10 04:24:01;;;;;;;145.88;92.07;;;;;;;-3.95;100.00;102337.69;5045906;28;20044;-85
2022/02/10 04:26:36;;;;;;;104.60;74.53;;;;;;;-3.99;100.00;102346.56;5040849;28;20441;-80
2022/02/10 04:37:50;;;;;;;139.48;92.25;;;;;;;-4.27;100.00;102365.13;5047550;28;20080;-80
2022/02/10 04:41:26;;;;;;;244.88;143.90;;;;;;;-4.32;100.00;102357.56;5045272;28;20408;-80
2022/02/10 04:43:51;;;;;;;259.42;154.90;;;;;;;-4.35;100.00;102351.69;5044363;28;20045;-83
2022/02/10 04:55:04;;;;;;;101.00;68.85;;;;;;;-4.55;100.00;102335.25;5041889;28;20052;-81
2022/02/10 04:57:51;;;;;;;93.57;69.10;;;;;;;-4.55;100.00;102339.59;5051622;28;20060;-83
2022/02/10 05:00:43;;;;;;;126.07;83.82;;;;;;;-4.22;100.00;102332.03;5048241;28;20061;-80
2022/02/10 05:03:45;;;;;;;103.95;76.30;;;;;;;-4.30;100.00;102336.72;5045248;28;20049;-80
2022/02/10 05:22:43;;;;;;;75.07;67.50;;;;;;;-4.26;100.00;102354.69;5050818;28;20114;-80
2022/02/10 05:36:07;;;;;;;76.97;65.55;;;;;;;-4.56;100.00;102359.50;5046957;28;20475;-80
2022/02/10 05:38:38;;;;;;;86.72;66.65;;;;;;;-4.49;100.00;102362.66;5050285;28;20127;-80
2022/02/10 05:44:22;;;;;;;268.15;170.40;;;;;;;-4.28;100.00;102369.47;5043186;28;20056;-81
2022/02/10 05:47:08;;;;;;;257.20;157.90;;;;;;;-4.41;100.00;102370.97;5048199;28;20059;-80
2022/02/10 05:55:20;;;;;;;186.70;123.30;;;;;;;-3.90;100.00;64013.03;5034394;28;20037;-82
2022/02/10 05:57:54;;;;;;;126.82;91.75;;;;;;;-3.59;100.00;102379.25;4987295;28;20057;-80
2022/02/10 06:52:58;;;;;;;114.90;100.38;;;;;;;2.19;100.00;102375.09;5051841;28;20048;-80
2022/02/10 06:56:02;;;;;;;119.03;105.85;;;;;;;2.61;100.00;102379.00;5043373;28;20073;-79
2022/02/10 07:07:07;;;;;;;99.78;90.30;;;;;;;3.52;100.00;102366.88;4989263;28;20600;-81
2022/02/10 07:09:49;;;;;;;109.43;98.53;;;;;;;3.75;100.00;102372.94;5027905;28;20080;-80
2022/02/10 07:12:35;;;;;;;106.72;94.93;;;;;;;4.02;100.00;102362.03;5051894;28;20088;-80
2022/02/10 07:48:21;;;;;;;99.78;92.30;;;;;;;6.27;100.00;102358.78;5048410;28;20107;-80
2022/02/10 07:51:14;;;;;;;98.03;90.07;;;;;;;6.76;100.00;102356.13;5051259;28;20049;-79
2022/02/10 07:53:56;;;;;;;99.65;91.57;;;;;;;7.34;100.00;102364.75;5050133;28;20474;-80
2022/02/10 08:17:52;;;;;;;103.97;95.50;;;;;;;8.29;100.00;102356.59;5049895;28;20041;-80
2022/02/10 08:57:25;;;;;;;85.90;79.20;;;;;;;11.75;100.00;102329.75;5047533;28;20603;-80
2022/02/10 09:05:33;;;;;;;81.93;76.00;;;;;;;11.93;100.00;102332.19;5045249;28;20056;-77
2022/02/10 09:16:55;;;;;;;86.40;79.90;;;;;;;12.69;100.00;102325.94;5047617;28;20080;-83
2022/02/10 09:47:44;;;;;;;80.55;74.40;;;;;;;12.68;100.00;102302.97;5007712;28;20125;-79
2022/02/10 09:58:38;;;;;;;81.22;75.43;;;;;;;12.75;100.00;102293.22;5069967;28;20158;-78
2022/02/10 10:01:15;;;;;;;90.18;82.90;;;;;;;12.63;100.00;102283.19;5059026;28;20044;-78
2022/02/10 10:03:53;;;;;;;79.80;74.00;;;;;;;14.42;100.00;102269.28;5046888;28;20136;-80
2022/02/10 10:06:26;;;;;;;79.30;74.05;;;;;;;12.86;100.00;102277.78;5043620;28;20055;-79
2022/02/10 10:09:15;;;;;;;79.97;74.63;;;;;;;12.80;100.00;102263.34;5048695;28;20470;-79
2022/02/10 10:12:07;;;;;;;82.30;76.07;;;;;;;15.71;95.06;102261.59;5043269;28;20511;-80
2022/02/10 10:14:41;;;;;;;81.25;75.60;;;;;;;13.73;92.15;102253.84;5048767;28;20041;-80
2022/02/10 10:17:26;;;;;;;83.90;77.55;;;;;;;13.09;100.00;102254.50;5046279;28;20057;-78
2022/02/10 10:20:08;;;;;;;84.05;78.32;;;;;;;12.70;99.61;102252.94;5047227;28;20237;-79
2022/02/10 10:22:51;;;;;;;88.95;82.82;;;;;;;15.12;93.89;102246.91;5048140;28;20049;-80
2022/02/10 10:25:47;;;;;;;89.05;82.85;;;;;;;14.56;89.57;102244.34;5048739;28;20485;-79
2022/02/10 10:50:59;;;;;;;89.53;83.22;;;;;;;14.36;89.97;102211.28;5035741;28;20053;-79
2022/02/10 10:53:34;;;;;;;87.88;81.60;;;;;;;16.63;78.18;102210.88;5039478;28;20122;-80
2022/02/10 10:56:08;;;;;;;86.47;80.78;;;;;;;12.34;81.55;102208.34;5031564;28;20081;-80
2022/02/10 10:58:41;;;;;;;90.07;84.18;;;;;;;13.40;82.25;102189.44;5018514;28;20116;-79
2022/02/10 11:03:39;;;;;;;94.20;87.57;;;;;;;15.15;85.34;102188.69;4999107;28;20077;-79
2022/02/10 11:38:29;;;;;;;91.95;85.55;;;;;;;15.54;70.51;102140.59;4994066;28;20113;-79
2022/02/10 11:41:27;;;;;;;89.88;83.70;;;;;;;17.24;61.69;102132.59;4990322;28;20042;-79
2022/02/10 12:30:35;;;;;;;90.60;83.93;;;;;;;19.88;46.65;102075.94;4979255;28;20105;-79
2022/02/10 14:13:25;;;;;;;68.65;65.15;;;;;;;15.65;61.28;102029.38;4999390;28;20136;-79
2022/02/10 14:16:12;;;;;;;67.82;64.13;;;;;;;15.34;64.53;102021.97;4993596;28;20047;-80
2022/02/10 14:18:46;;;;;;;61.63;58.33;;;;;;;15.43;59.22;102025.25;5000111;28;20050;-81
2022/02/10 14:21:29;;;;;;;59.85;56.60;;;;;;;15.10;63.17;102013.50;4998072;28;20077;-80
2022/02/10 14:26:48;;;;;;;64.13;60.63;;;;;;;13.22;75.48;102008.41;4992374;28;20382;-80
2022/02/10 14:29:15;;;;;;;63.33;59.97;;;;;;;15.38;66.69;102009.00;4986285;28;20070;-79
2022/02/10 14:31:44;;;;;;;65.07;61.47;;;;;;;13.81;68.09;102000.06;4986151;28;20051;-80
2022/02/10 14:34:13;;;;;;;67.38;63.58;;;;;;;15.09;66.95;102000.31;4992087;28;20050;-81
2022/02/10 14:36:44;;;;;;;86.72;81.05;;;;;;;12.93;78.37;101993.38;4989762;28;20050;-79
2022/02/10 14:39:27;;;;;;;87.50;81.93;;;;;;;14.78;71.09;101995.56;4987854;28;20070;-81
2022/02/10 15:18:25;;;;;;;81.90;75.90;;;;;;;10.65;100.00;101965.53;4991579;28;20054;-79
2022/02/10 15:54:31;;;;;;;106.10;94.22;;;;;;;7.87;100.00;101947.13;4986969;28;20050;-79
2022/02/10 16:10:55;;;;;;;125.72;110.75;;;;;;;6.79;100.00;101954.44;4986912;28;20485;-79
2022/02/10 16:18:52;;;;;;;190.88;129.60;;;;;;;5.93;100.00;101947.72;4991533;28;20553;-80
2022/02/10 16:21:31;;;;;;;154.95;114.03;;;;;;;6.06;100.00;101950.03;4989015;28;20050;-78
2022/02/10 16:24:02;;;;;;;118.32;105.15;;;;;;;5.70;100.00;101951.66;4983895;28;20062;-79
2022/02/10 16:26:39;;;;;;;108.15;93.07;;;;;;;5.86;100.00;101951.88;4988048;28;20085;-79
2022/02/10 16:29:09;;;;;;;114.75;98.18;;;;;;;5.61;100.00;101955.16;4979753;28;20046;-79
2022/02/10 16:31:38;;;;;;;126.43;110.88;;;;;;;5.60;100.00;101950.84;4998244;28;20563;-79
2022/02/10 16:34:07;;;;;;;138.48;114.68;;;;;;;5.17;100.00;101963.53;5000424;28;20093;-79
2022/02/10 16:36:35;;;;;;;203.55;127.93;;;;;;;4.79;100.00;101959.97;4990856;28;20058;-80
2022/02/10 16:39:04;;;;;;;233.45;141.88;;;;;;;5.29;100.00;101951.06;4980913;28;20050;-78
2022/02/10 16:41:31;;;;;;;306.85;165.48;;;;;;;4.82;100.00;101950.97;4984758;28;20129;-80
2022/02/10 16:43:57;;;;;;;306.05;165.52;;;;;;;4.94;100.00;101956.91;4981470;28;20194;-80
2022/02/10 16:46:24;;;;;;;310.30;176.35;;;;;;;4.80;100.00;101952.88;4987282;28;20062;-79
2022/02/10 16:48:52;;;;;;;339.42;177.50;;;;;;;4.95;100.00;101961.22;4987236;28;20046;-79
2022/02/10 16:51:20;;;;;;;355.58;179.75;;;;;;;4.79;100.00;101961.75;4988312;28;20109;-80
2022/02/10 16:53:53;;;;;;;327.33;180.35;;;;;;;4.33;100.00;101956.16;4989119;28;20486;-80
2022/02/10 16:56:24;;;;;;;223.45;148.38;;;;;;;3.88;100.00;101963.59;4992041;28;20058;-80
2022/02/10 16:59:04;;;;;;;281.25;156.85;;;;;;;4.36;100.00;101966.41;4990313;28;20117;-80
2022/02/10 17:01:48;;;;;;;173.70;132.05;;;;;;;3.92;100.00;101970.25;4983848;28;20046;-79
2022/02/10 17:04:55;;;;;;;177.55;118.97;;;;;;;4.11;100.00;101961.59;4995128;28;20439;-79
2022/02/10 17:18:49;;;;;;;102.57;91.18;;;;;;;3.80;100.00;101977.38;4982730;28;20116;-80
2022/02/10 17:21:28;;;;;;;113.70;103.33;;;;;;;3.20;100.00;101968.44;4988895;28;20050;-79
2022/02/10 17:26:55;;;;;;;97.18;87.72;;;;;;;3.32;100.00;101971.84;4992105;28;20057;-79
2022/02/10 17:29:35;;;;;;;106.22;95.88;;;;;;;3.26;100.00;101967.09;4981289;28;20078;-80
2022/02/10 17:32:13;;;;;;;123.70;110.97;;;;;;;3.26;100.00;101965.31;4992403;28;20058;-80
2022/02/10 17:35:02;;;;;;;109.53;97.57;;;;;;;3.49;100.00;101965.19;4987747;28;20141;-80
2022/02/10 17:41:20;;;;;;;110.32;95.68;;;;;;;3.19;100.00;101965.00;4985642;28;20046;-79
2022/02/10 17:45:55;;;;;;;113.68;101.32;;;;;;;2.59;100.00;101952.47;4986617;28;20062;-81
2022/02/10 17:53:48;;;;;;;99.93;86.65;;;;;;;2.17;100.00;101947.88;4990380;28;20057;-79
2022/02/10 17:56:15;;;;;;;104.95;90.20;;;;;;;2.14;100.00;101939.44;4996200;28;20042;-80
2022/02/10 17:58:43;;;;;;;112.88;99.53;;;;;;;2.10;100.00;101940.63;4994546;28;20054;-81
2022/02/10 18:01:11;;;;;;;117.43;99.82;;;;;;;2.16;100.00;101938.38;4983448;28;20124;-81
2022/02/10 18:03:38;;;;;;;112.13;99.75;;;;;;;2.12;100.00;101930.84;4987786;28;20046;-80
2022/02/10 18:06:23;;;;;;;107.75;92.85;;;;;;;2.04;100.00;101936.72;4987422;28;20058;-78
2022/02/10 18:09:10;;;;;;;113.53;90.25;;;;;;;2.05;100.00;101933.13;4990320;28;20089;-81
2022/02/10 18:14:34;;;;;;;116.00;93.43;;;;;;;1.88;100.00;101931.84;4995248;28;20051;-80
2022/02/10 18:17:09;;;;;;;105.17;87.90;;;;;;;1.78;100.00;101926.47;4995122;28;20448;-80
2022/02/10 18:19:41;;;;;;;103.75;90.25;;;;;;;1.69;100.00;101928.97;4997503;28;20137;-79
2022/02/10 18:22:31;;;;;;;104.63;91.50;;;;;;;1.12;100.00;101926.28;4983333;28;20116;-82
2022/02/10 18:25:15;;;;;;;98.05;83.72;;;;;;;1.45;100.00;101918.59;4989927;28;20081;-80
2022/02/10 18:27:56;;;;;;;97.25;86.55;;;;;;;1.49;100.00;101915.63;5002153;28;20442;-80
2022/02/10 18:30:27;;;;;;;114.97;89.40;;;;;;;1.23;100.00;101912.34;4992345;28;20046;-81
2022/02/10 19:06:55;;;;;;;540.65;259.13;;;;;;;0.74;100.00;101915.19;4990579;28;20116;-79
2022/02/10 19:09:27;;;;;;;341.65;169.75;;;;;;;0.94;100.00;101919.78;4989934;28;20054;-79
2022/02/10 19:12:00;;;;;;;221.02;127.25;;;;;;;1.09;100.00;101920.41;4989958;28;20133;-81
2022/02/10 19:14:28;;;;;;;220.10;125.35;;;;;;;0.88;100.00;101923.69;4991646;28;20076;-79
2022/02/10 19:16:55;;;;;;;192.32;120.72;;;;;;;0.79;100.00;101918.31;4989139;28;20116;-80
2022/02/10 19:19:23;;;;;;;222.20;139.98;;;;;;;0.84;100.00;101924.84;4981922;28;20058;-80
2022/02/10 19:21:50;;;;;;;174.52;110.07;;;;;;;0.68;100.00;101932.97;4984660;28;20125;-78
2022/02/10 19:24:18;;;;;;;139.18;94.90;;;;;;;0.35;100.00;101927.56;4986618;28;20066;-79
2022/02/10 19:26:50;;;;;;;130.77;91.28;;;;;;;0.48;100.00;101923.13;4982163;28;20443;-81
2022/02/10 19:29:17;;;;;;;129.73;92.47;;;;;;;0.41;100.00;101927.13;4989532;28;20168;-79
2022/02/10 19:31:45;;;;;;;116.85;88.30;;;;;;;0.46;100.00;101925.03;4982584;28;20073;-79
2022/02/10 19:34:12;;;;;;;103.80;77.40;;;;;;;0.45;100.00;101929.44;4983655;28;20479;-80
2022/02/10 19:36:40;;;;;;;92.75;75.78;;;;;;;0.29;100.00;101922.78;4983870;28;20085;-78
2022/02/10 19:39:08;;;;;;;95.65;80.18;;;;;;;0.52;100.00;101931.59;4990153;28;20054;-78
2022/02/10 19:41:40;;;;;;;107.82;83.65;;;;;;;0.23;100.00;101924.06;4989466;28;20046;-79
2022/02/10 19:44:07;;;;;;;131.23;100.68;;;;;;;0.19;100.00;101920.00;4985103;28;20077;-79
2022/02/10 19:46:34;;;;;;;114.07;93.90;;;;;;;-0.05;100.00;101925.19;4986042;28;20062;-80
2022/02/10 19:49:01;;;;;;;121.85;93.72;;;;;;;0.02;100.00;101921.19;4983425;28;20132;-79
2022/02/10 19:51:28;;;;;;;110.75;92.35;;;;;;;-0.13;100.00;101914.41;4983016;28;20066;-80
2022/02/10 19:53:57;;;;;;;115.85;86.47;;;;;;;-0.10;100.00;101904.59;4977372;28;20380;-78
2022/02/10 19:56:28;;;;;;;116.70;89.75;;;;;;;0.13;100.00;101910.81;4988767;28;20081;-79
2022/02/10 19:58:54;;;;;;;132.27;102.28;;;;;;;0.18;100.00;101910.47;4986172;28;20539;-79
2022/02/10 20:01:23;;;;;;;123.35;96.20;;;;;;;-0.05;100.00;101910.34;4989397;28;20462;-79
2022/02/10 20:03:50;;;;;;;127.13;92.70;;;;;;;0.08;100.00;101901.63;4986999;28;20072;-80
2022/02/10 20:06:17;;;;;;;133.68;94.60;;;;;;;-0.15;100.00;101898.00;4986451;28;20054;-79
2022/02/10 20:08:46;;;;;;;155.35;104.10;;;;;;;-0.09;100.00;101902.81;4978268;28;20137;-80
2022/02/10 20:11:14;;;;;;;170.02;107.88;;;;;;;-0.10;100.00;101896.75;4981063;28;20086;-79
2022/02/10 20:13:42;;;;;;;173.38;105.15;;;;;;;0.08;100.00;101899.03;4988107;28;20113;-78
2022/02/10 20:16:11;;;;;;;122.82;86.28;;;;;;;0.29;100.00;101902.72;4983988;28;20054;-78
2022/02/10 20:18:38;;;;;;;146.10;94.15;;;;;;;-0.21;100.00;101894.09;4989378;28;20050;-79
2022/02/10 20:21:08;;;;;;;134.20;90.00;;;;;;;-0.22;100.00;101897.63;4987715;28;20058;-79
2022/02/10 20:23:35;;;;;;;125.20;83.80;;;;;;;-0.11;100.00;101894.25;4983301;28;20055;-79
2022/02/10 20:26:02;;;;;;;129.05;83.88;;;;;;;-0.08;100.00;101894.88;4978383;28;20064;-80
2022/02/10 20:28:32;;;;;;;121.25;80.88;;;;;;;-0.02;100.00;101894.44;4991250;28;20523;-79
2022/02/10 20:31:00;;;;;;;110.05;80.55;;;;;;;-0.13;100.00;101889.13;4980383;28;20078;-79
2022/02/10 20:33:29;;;;;;;109.50;75.63;;;;;;;-0.14;100.00;101897.91;4981408;28;20161;-79
2022/02/10 20:35:58;;;;;;;111.88;79.75;;;;;;;-0.26;100.00;101888.34;4981462;28;20073;-78
2022/02/10 20:38:25;;;;;;;124.22;85.32;;;;;;;-0.19;100.00;101891.34;4983994;28;20453;-80
2022/02/10 20:40:59;;;;;;;111.05;81.03;;;;;;;0.00;100.00;101891.75;4987319;28;20051;-78
2022/02/10 20:43:26;;;;;;;110.72;79.75;;;;;;;-0.20;100.00;101890.53;4982908;28;20491;-80
2022/02/10 20:45:58;;;;;;;100.70;77.45;;;;;;;-0.07;100.00;101880.88;4985690;28;20463;-81
2022/02/10 20:48:27;;;;;;;69.68;61.15;;;;;;;-0.28;100.00;101867.53;4981639;28;20046;-80
2022/02/10 20:50:56;;;;;;;85.50;68.78;;;;;;;0.29;100.00;101870.53;4988219;28;20047;-80
2022/02/10 20:53:24;;;;;;;88.00;69.65;;;;;;;-0.05;100.00;101875.56;4993680;28;20078;-80
2022/02/10 20:55:54;;;;;;;76.25;60.85;;;;;;;0.26;100.00;101873.34;4986463;28;20084;-79
2022/02/10 20:58:24;;;;;;;81.82;61.97;;;;;;;0.37;100.00;101873.44;4978392;28;20046;-79
2022/02/10 21:00:53;;;;;;;74.68;59.70;;;;;;;0.35;100.00;101876.13;4984413;28;20074;-78
2022/02/10 21:03:24;;;;;;;72.82;57.30;;;;;;;0.21;100.00;101868.44;4986748;28;20039;-80
2022/02/10 21:05:58;;;;;;;78.18;62.88;;;;;;;-0.09;100.00;101863.63;4988601;28;20047;-79
2022/02/10 21:08:33;;;;;;;80.40;61.05;;;;;;;-0.10;100.00;101865.41;4985641;28;20062;-80
2022/02/10 21:11:01;;;;;;;77.40;59.90;;;;;;;0.11;100.00;101872.69;4988551;28;20054;-78
2022/02/10 21:13:29;;;;;;;62.50;54.33;;;;;;;0.01;100.00;101861.22;4985417;28;20125;-79
2022/02/10 21:15:56;;;;;;;77.00;65.90;;;;;;;-0.56;100.00;101859.97;4984988;28;20047;-78
2022/02/10 21:18:26;;;;;;;82.72;73.68;;;;;;;-0.05;100.00;101859.88;4977234;28;20046;-81
2022/02/10 21:20:57;;;;;;;64.10;56.20;;;;;;;-0.01;100.00;101862.16;4985850;28;20064;-78
2022/02/10 21:23:29;;;;;;;66.15;58.38;;;;;;;-0.07;100.00;101856.53;4987988;28;20077;-81
2022/02/10 21:25:57;;;;;;;66.90;56.78;;;;;;;-0.12;100.00;101861.22;4988342;28;20054;-78
2022/02/10 21:28:28;;;;;;;65.70;56.25;;;;;;;-0.30;100.00;101850.34;4994642;28;20365;-79
2022/02/10 21:30:57;;;;;;;67.15;60.08;;;;;;;-0.24;100.00;101847.28;4982406;28;20128;-80
2022/02/10 21:33:30;;;;;;;69.82;62.08;;;;;;;-0.08;100.00;101842.66;4983506;28;20092;-79
2022/02/10 21:38:53;;;;;;;97.90;75.82;;;;;;;-0.60;100.00;101827.19;4975841;28;20058;-78
2022/02/10 21:42:14;;;;;;;134.35;95.50;;;;;;;-0.30;100.00;101834.66;4988292;28;20112;-79
2022/02/10 21:53:17;;;;;;;68.57;61.08;;;;;;;0.31;100.00;101817.19;4989172;28;20050;-79
2022/02/10 22:09:47;;;;;;;62.33;56.03;;;;;;;0.02;100.00;101810.63;4967433;28;20145;-80
2022/02/10 22:20:42;;;;;;;57.10;51.55;;;;;;;-0.68;100.00;101809.44;4966320;28;20255;-80
2022/02/10 22:23:17;;;;;;;57.42;52.45;;;;;;;-0.64;100.00;101804.84;4987856;28;20047;-79
2022/02/10 22:25:43;;;;;;;54.85;50.03;;;;;;;-0.76;100.00;101804.75;4983182;28;20468;-78
2022/02/10 22:28:23;;;;;;;59.58;54.20;;;;;;;-0.70;100.00;101813.94;4989033;28;20053;-80
2022/02/10 22:30:57;;;;;;;60.30;55.13;;;;;;;-0.79;100.00;101809.34;4987049;28;20487;-79
2022/02/10 22:33:30;;;;;;;58.97;53.30;;;;;;;-1.16;100.00;101804.84;4991706;28;20057;-80
2022/02/10 22:35:58;;;;;;;58.67;52.92;;;;;;;-1.01;100.00;101796.94;4985144;28;20486;-80
2022/02/10 22:38:26;;;;;;;64.50;58.25;;;;;;;-1.11;100.00;101796.75;4987221;28;20531;-82
2022/02/10 22:41:08;;;;;;;65.25;59.15;;;;;;;-1.12;100.00;101800.28;4988693;28;20467;-79
2022/02/10 22:43:35;;;;;;;60.80;54.90;;;;;;;-1.25;100.00;101791.59;4992679;28;20104;-79
2022/02/10 22:46:02;;;;;;;73.80;63.92;;;;;;;-1.23;100.00;101789.75;4982001;28;20112;-79
2022/02/10 22:48:29;;;;;;;64.38;58.47;;;;;;;-1.42;100.00;101790.16;4981296;28;20050;-79
2022/02/10 22:50:55;;;;;;;59.05;53.78;;;;;;;-1.21;100.00;101777.41;4985705;28;20454;-79
2022/02/10 22:53:22;;;;;;;60.47;54.85;;;;;;;-1.31;100.00;101776.38;4979795;28;20063;-79
2022/02/10 22:55:51;;;;;;;66.93;61.10;;;;;;;-1.26;100.00;101771.69;4992999;28;20054;-82
2022/02/10 22:58:18;;;;;;;69.43;62.90;;;;;;;-1.35;100.00;101772.31;4993209;28;20128;-78
2022/02/10 23:00:47;;;;;;;56.20;51.60;;;;;;;-1.17;100.00;101766.69;4985553;28;20110;-79
2022/02/10 23:03:15;;;;;;;57.53;52.50;;;;;;;-1.27;100.00;101770.00;4987117;28;20055;-78
2022/02/10 23:05:42;;;;;;;57.03;51.92;;;;;;;-0.80;100.00;101764.16;4987231;28;20117;-79
2022/02/10 23:08:09;;;;;;;52.28;47.53;;;;;;;-0.99;100.00;101759.41;4986266;28;20047;-78
2022/02/10 23:10:43;;;;;;;55.60;50.38;;;;;;;-1.21;100.00;101759.16;4988958;28;20051;-78
2022/02/10 23:13:12;;;;;;;65.88;60.15;;;;;;;-0.80;100.00;101760.72;4981511;28;20066;-79
2022/02/10 23:15:39;;;;;;;62.28;56.90;;;;;;;-0.67;100.00;101758.09;4986696;28;20047;-80
2022/02/10 23:18:07;;;;;;;57.70;52.38;;;;;;;-0.73;100.00;101748.91;4986694;28;20055;-79
2022/02/10 23:20:34;;;;;;;63.58;57.88;;;;;;;-0.84;100.00;101756.69;4986230;28;20486;-78
2022/02/10 23:23:03;;;;;;;63.55;57.88;;;;;;;-0.86;100.00;101748.13;4983571;28;20463;-79
2022/02/10 23:25:30;;;;;;;64.72;58.45;;;;;;;-0.89;100.00;101751.75;4986145;28;20054;-80
2022/02/10 23:27:58;;;;;;;51.65;47.63;;;;;;;-0.79;100.00;101739.72;4984069;28;20051;-79
2022/02/10 23:30:26;;;;;;;62.05;56.88;;;;;;;-1.05;100.00;101732.91;4986923;28;20047;-78
2022/02/10 23:32:57;;;;;;;55.30;51.40;;;;;;;-0.85;100.00;101737.56;4986387;28;20101;-80
2022/02/10 23:36:09;;;;;;;51.45;47.60;;;;;;;-1.17;100.00;101729.38;4987437;28;20133;-79
2022/02/10 23:38:24;;;;;;;56.33;51.83;;;;;;;-1.26;100.00;101732.59;4988254;28;20383;-80
2022/02/10 23:41:18;;;;;;;52.97;48.58;;;;;;;-1.22;100.00;101727.06;4989982;28;20065;-78
2022/02/10 23:43:44;;;;;;;52.72;48.42;;;;;;;-1.29;100.00;101735.41;4988881;28;20066;-79
2022/02/10 23:46:12;;;;;;;52.50;48.58;;;;;;;-1.24;100.00;101728.09;4988470;28;20042;-79
2022/02/10 23:48:40;;;;;;;55.15;50.85;;;;;;;-1.47;100.00;101733.09;4983684;28;20051;-79
2022/02/10 23:51:07;;;;;;;53.13;48.88;;;;;;;-1.36;100.00;101736.75;4983182;28;20051;-78
2022/02/10 23:53:34;;;;;;;51.20;47.10;;;;;;;-1.50;100.00;101735.09;4985847;28;20055;-79
2022/02/10 23:56:04;;;;;;;56.70;52.42;;;;;;;-1.49;100.00;101736.75;4985529;28;20051;-79
2022/02/10 23:58:38;;;;;;;59.28;54.83;;;;;;;-1.50;100.00;101735.09;4981618;28;20619;-79
